createdAt,value
2022-08-11T00:01:24.518Z,62.50
2022-08-11T00:04:00.664Z,64.60
2022-08-11T00:06:39.290Z,63.00
2022-08-11T00:09:16.410Z,63.40
2022-08-11T00:11:58.673Z,63.30
2022-08-11T00:14:36.948Z,63.20
2022-08-11T00:17:14.720Z,63.40
2022-08-11T00:20:14.239Z,64.20
2022-08-11T00:22:47.624Z,63.70
2022-08-11T00:25:22.124Z,63.90
2022-08-11T00:27:54.499Z,63.70
2022-08-11T00:30:39.241Z,63.30
2022-08-11T00:33:11.768Z,63.90
2022-08-11T00:35:50.868Z,63.50
2022-08-11T00:38:35.763Z,63.20
2022-08-11T00:41:31.856Z,64.50
2022-08-11T00:44:50.104Z,63.90
2022-08-11T00:48:11.250Z,63.50
2022-08-11T00:51:08.703Z,64.20
2022-08-11T00:54:43.513Z,63.70
2022-08-11T00:57:56.698Z,64.60
2022-08-11T01:01:09.333Z,64.80
2022-08-11T01:04:28.350Z,63.90
2022-08-11T01:08:00.574Z,64.60
2022-08-11T01:10:53.538Z,64.90
2022-08-11T01:14:14.106Z,65.90
2022-08-11T01:17:43.366Z,65.30
2022-08-11T01:20:49.455Z,65.20
2022-08-11T01:23:56.292Z,65.40
2022-08-11T01:27:29.698Z,66.00
2022-08-11T01:30:40.517Z,65.40
2022-08-11T01:34:05.529Z,65.00
2022-08-11T01:37:25.021Z,66.70
2022-08-11T01:40:35.757Z,67.20
2022-08-11T01:44:25.276Z,66.20
2022-08-11T01:47:58.913Z,67.70
2022-08-11T01:50:47.593Z,66.30
2022-08-11T01:54:13.066Z,67.20
2022-08-11T01:57:04.990Z,67.10
2022-08-11T02:00:09.611Z,66.70
2022-08-11T02:02:48.071Z,69.50
2022-08-11T02:05:50.530Z,67.20
2022-08-11T02:09:04.033Z,68.50
2022-08-11T02:11:49.514Z,68.40
2022-08-11T02:15:12.117Z,69.30
2022-08-11T02:18:24.298Z,69.20
2022-08-11T02:21:40.601Z,69.30
2022-08-11T02:24:50.447Z,68.20
2022-08-11T02:27:47.320Z,68.50
2022-08-11T02:30:27.933Z,68.80
2022-08-11T02:33:30.418Z,68.30
2022-08-11T02:36:24.436Z,68.90
2022-08-11T02:39:14.998Z,70.10
2022-08-11T02:42:42.471Z,68.80
2022-08-11T02:45:54.790Z,69.70
2022-08-11T02:49:19.353Z,68.80
2022-08-11T02:52:37.979Z,69.50
2022-08-11T02:55:48.826Z,69.80
2022-08-11T02:59:26.518Z,73.20
2022-08-11T03:02:43.244Z,70.70
2022-08-11T03:05:45.340Z,71.10
2022-08-11T03:08:52.524Z,72.90
2022-08-11T03:12:15.128Z,70.40
2022-08-11T03:16:01.291Z,70.70
2022-08-11T03:19:16.049Z,70.60
2022-08-11T03:22:10.624Z,75.60
2022-08-11T03:25:31.543Z,71.90
2022-08-11T03:28:22.008Z,73.50
2022-08-11T03:31:25.176Z,73.10
2022-08-11T03:34:08.409Z,72.00
2022-08-11T03:37:17.349Z,73.40
2022-08-11T03:40:42.074Z,74.80
2022-08-11T03:43:58.423Z,77.20
2022-08-11T03:47:10.373Z,74.60
2022-08-11T03:50:20.370Z,75.20
2022-08-11T03:53:39.513Z,77.00
2022-08-11T03:56:55.252Z,75.10
2022-08-11T04:00:03.053Z,76.50
2022-08-11T04:03:14.982Z,74.80
2022-08-11T04:06:32.097Z,76.10
2022-08-11T04:09:55.355Z,77.70
2022-08-11T04:12:51.578Z,76.20
2022-08-11T04:16:11.339Z,79.40
2022-08-11T04:19:38.397Z,77.10
2022-08-11T04:23:07.615Z,76.80
2022-08-11T04:26:18.862Z,76.60
2022-08-11T04:30:00.989Z,78.90
2022-08-11T04:33:09.163Z,77.70
2022-08-11T04:36:21.173Z,78.00
2022-08-11T04:39:20.073Z,80.40
2022-08-11T04:42:50.731Z,79.00
2022-08-11T04:46:06.470Z,78.00
2022-08-11T04:50:00.129Z,77.90
2022-08-11T04:53:30.569Z,77.50
2022-08-11T04:56:44.749Z,78.20
2022-08-11T05:00:16.786Z,78.30
2022-08-11T05:03:42.509Z,77.70
2022-08-11T05:07:09.625Z,78.00
2022-08-11T05:10:13.399Z,79.50
2022-08-11T05:13:28.777Z,78.10
2022-08-11T05:16:47.411Z,78.00
2022-08-11T05:19:58.807Z,78.90
2022-08-11T05:23:10.479Z,77.80
2022-08-11T05:26:46.698Z,79.00
2022-08-11T05:30:03.062Z,77.50
2022-08-11T05:33:19.586Z,78.00
2022-08-11T05:36:52.000Z,79.00
2022-08-11T05:40:08.410Z,78.60
2022-08-11T05:43:21.051Z,78.20
2022-08-11T05:46:31.350Z,78.20
2022-08-11T05:49:42.496Z,78.40
2022-08-11T05:52:57.436Z,77.30
2022-08-11T05:56:09.817Z,78.40
2022-08-11T05:58:59.879Z,77.20
2022-08-11T06:01:34.246Z,77.20
2022-08-11T06:04:16.821Z,76.60
2022-08-11T06:07:02.897Z,76.10
2022-08-11T06:09:44.317Z,75.80
2022-08-11T06:12:25.654Z,74.70
2022-08-11T06:15:13.948Z,72.20
2022-08-11T06:17:48.103Z,71.80
2022-08-11T06:20:25.489Z,70.80
2022-08-11T06:23:02.270Z,68.90
2022-08-11T06:25:37.600Z,67.00
2022-08-11T06:28:10.440Z,64.80
2022-08-11T06:30:47.217Z,62.20
2022-08-11T06:33:29.458Z,59.70
2022-08-11T06:36:14.771Z,59.30
2022-08-11T06:39:12.964Z,57.80
2022-08-11T06:42:06.478Z,56.50
2022-08-11T06:45:00.392Z,54.20
2022-08-11T06:47:53.236Z,51.70
2022-08-11T06:50:46.356Z,51.40
2022-08-11T06:54:03.511Z,51.20
2022-08-11T06:57:28.791Z,50.00
2022-08-11T07:00:32.945Z,50.20
2022-08-11T07:03:16.541Z,50.40
2022-08-11T07:05:54.545Z,50.60
2022-08-11T07:09:03.961Z,49.70
2022-08-11T07:12:19.041Z,49.70
2022-08-11T07:16:11.613Z,48.20
2022-08-11T07:18:46.471Z,46.30
2022-08-11T07:22:03.735Z,44.70
2022-08-11T07:25:21.777Z,45.80
2022-08-11T07:28:43.630Z,45.80
2022-08-11T07:31:42.047Z,45.10
2022-08-11T07:34:23.070Z,44.40
2022-08-11T07:37:04.048Z,45.80
2022-08-11T07:39:44.401Z,43.90
2022-08-11T07:42:26.770Z,44.70
2022-08-11T07:45:25.126Z,44.50
2022-08-11T07:48:36.551Z,43.60
2022-08-11T07:51:46.799Z,43.60
2022-08-11T07:54:39.500Z,43.70
2022-08-11T07:58:14.031Z,45.80
2022-08-11T08:01:34.940Z,44.80
2022-08-11T08:04:47.491Z,46.20
2022-08-11T08:07:57.858Z,44.40
2022-08-11T08:11:08.978Z,45.60
2022-08-11T08:14:20.192Z,45.40
2022-08-11T08:17:31.048Z,44.20
2022-08-11T08:20:26.692Z,44.90
2022-08-11T08:23:08.441Z,45.90
2022-08-11T08:25:43.325Z,45.80
2022-08-11T08:28:17.547Z,45.10
2022-08-11T08:30:52.496Z,43.80
2022-08-11T08:33:29.932Z,43.80
2022-08-11T08:36:15.224Z,45.70
2022-08-11T08:39:08.324Z,45.50
2022-08-11T08:41:41.095Z,46.00
2022-08-11T08:47:37.539Z,45.90
2022-08-11T08:50:16.358Z,45.70
2022-08-11T08:53:04.058Z,45.50
2022-08-11T08:55:39.460Z,46.70
2022-08-11T08:58:19.225Z,45.10
2022-08-11T09:00:54.686Z,46.00
2022-08-11T09:04:06.943Z,44.30
2022-08-11T09:06:21.117Z,44.80
2022-08-11T09:08:55.280Z,45.00
2022-08-11T09:11:46.491Z,44.90
2022-08-11T09:14:25.042Z,46.40
2022-08-11T09:17:21.165Z,44.70
2022-08-11T09:20:09.650Z,45.90
2022-08-11T09:26:37.788Z,45.80
2022-08-11T09:29:31.784Z,46.10
2022-08-11T09:32:07.197Z,47.20
2022-08-11T09:34:39.991Z,47.10
2022-08-11T09:37:55.815Z,47.00
2022-08-11T09:40:46.840Z,45.40
2022-08-11T09:43:47.801Z,45.70
2022-08-11T09:46:41.614Z,45.70
2022-08-11T09:49:14.327Z,44.30
2022-08-11T09:52:05.061Z,43.60
2022-08-11T09:54:48.274Z,45.00
2022-08-11T09:57:41.418Z,44.70
2022-08-11T10:00:38.100Z,45.00
2022-08-11T10:03:19.210Z,44.50
2022-08-11T10:06:16.921Z,43.10
2022-08-11T10:09:09.707Z,43.40
2022-08-11T10:11:43.757Z,44.40
2022-08-11T10:14:52.826Z,45.10
2022-08-11T10:18:06.329Z,43.30
2022-08-11T10:21:11.733Z,43.20
2022-08-11T10:24:25.489Z,44.00
2022-08-11T10:27:17.977Z,44.80
2022-08-11T10:30:09.886Z,44.40
2022-08-11T10:33:36.916Z,44.00
2022-08-11T10:36:32.947Z,43.70
2022-08-11T10:39:10.698Z,43.20
2022-08-11T10:42:09.586Z,42.60
2022-08-11T10:45:29.223Z,42.60
2022-08-11T10:48:26.776Z,41.90
2022-08-11T10:51:13.551Z,43.20
2022-08-11T10:54:12.361Z,43.50
2022-08-11T10:57:23.733Z,42.20
2022-08-11T11:00:16.498Z,42.50
2022-08-11T11:03:22.027Z,42.20
2022-08-11T11:06:12.548Z,41.70
2022-08-11T11:09:00.084Z,42.60
2022-08-11T11:12:01.318Z,42.50
2022-08-11T11:15:17.731Z,42.60
2022-08-11T11:18:19.823Z,43.00
2022-08-11T11:21:06.698Z,41.70
2022-08-11T11:24:02.901Z,42.90
2022-08-11T11:27:12.243Z,42.20
2022-08-11T11:30:12.437Z,41.50
2022-08-11T11:33:02.330Z,41.10
2022-08-11T11:36:11.310Z,42.30
2022-08-11T11:38:57.610Z,42.70
2022-08-11T11:41:30.853Z,42.70
2022-08-11T11:44:03.495Z,42.20
2022-08-11T11:46:38.604Z,42.00
2022-08-11T11:52:00.739Z,40.10
2022-08-11T11:54:36.573Z,40.40
2022-08-11T11:57:33.336Z,41.40
2022-08-11T12:00:43.732Z,41.10
2022-08-11T12:03:37.933Z,41.00
2022-08-11T12:06:14.209Z,40.70
2022-08-11T12:08:50.832Z,40.20
2022-08-11T12:11:46.421Z,39.50
2022-08-11T12:14:38.250Z,40.20
2022-08-11T12:17:10.503Z,39.90
2022-08-11T12:19:48.322Z,39.30
2022-08-11T12:22:39.419Z,38.40
2022-08-11T12:26:04.457Z,39.30
2022-08-11T12:29:02.147Z,38.70
2022-08-11T12:31:38.133Z,38.70
2022-08-11T12:34:17.768Z,38.80
2022-08-11T12:36:57.616Z,38.70
2022-08-11T12:40:16.784Z,37.80
2022-08-11T12:43:42.868Z,38.20
2022-08-11T12:46:42.813Z,39.20
2022-08-11T12:49:44.727Z,39.10
2022-08-11T12:52:49.109Z,37.20
2022-08-11T12:56:07.409Z,37.50
2022-08-11T12:59:16.081Z,37.80
2022-08-11T13:02:31.130Z,37.20
2022-08-11T13:05:27.617Z,36.30
2022-08-11T13:08:02.759Z,38.00
2022-08-11T13:10:55.629Z,38.60
2022-08-11T13:13:53.539Z,37.90
2022-08-11T13:16:32.265Z,37.20
2022-08-11T13:19:30.522Z,35.80
2022-08-11T13:22:05.344Z,37.20
2022-08-11T13:24:40.512Z,37.20
2022-08-11T13:27:12.829Z,36.10
2022-08-11T13:29:49.071Z,35.50
2022-08-11T13:32:26.318Z,35.90
2022-08-11T13:34:59.294Z,34.70
2022-08-11T13:38:27.109Z,36.00
2022-08-11T13:40:45.881Z,35.70
2022-08-11T13:43:21.641Z,35.40
2022-08-11T13:46:15.246Z,36.10
2022-08-11T13:49:00.508Z,36.10
2022-08-11T13:51:35.178Z,34.90
2022-08-11T13:54:10.230Z,34.50
2022-08-11T13:56:56.434Z,34.90
2022-08-11T13:59:32.801Z,34.10
2022-08-11T14:02:22.204Z,33.10
2022-08-11T14:05:11.880Z,35.20
2022-08-11T14:07:59.253Z,34.60
2022-08-11T14:10:37.480Z,34.80
2022-08-11T14:13:41.200Z,35.40
2022-08-11T14:16:30.907Z,35.80
2022-08-11T14:19:11.249Z,34.80
2022-08-11T14:22:07.879Z,36.20
2022-08-11T14:24:49.437Z,35.20
2022-08-11T14:27:39.078Z,35.30
2022-08-11T14:30:42.715Z,33.80
2022-08-11T14:33:58.389Z,33.20
2022-08-11T14:36:39.014Z,34.10
2022-08-11T14:39:19.698Z,33.90
2022-08-11T14:42:19.488Z,34.30
2022-08-11T14:45:57.406Z,34.40
2022-08-11T14:48:46.094Z,33.20
2022-08-11T14:51:19.468Z,34.40
2022-08-11T14:54:17.822Z,32.80
2022-08-11T14:57:10.316Z,34.10
2022-08-11T14:59:44.840Z,33.60
2022-08-11T15:02:38.099Z,35.10
2022-08-11T15:05:36.598Z,34.00
2022-08-11T15:08:48.749Z,34.00
2022-08-11T15:11:50.724Z,33.60
2022-08-11T15:15:05.104Z,34.30
2022-08-11T15:18:04.345Z,33.70
2022-08-11T15:20:56.548Z,34.60
2022-08-11T15:24:06.788Z,36.00
2022-08-11T15:27:14.862Z,34.60
2022-08-11T15:30:32.427Z,34.80
2022-08-11T15:33:47.191Z,34.60
2022-08-11T15:36:59.537Z,34.70
2022-08-11T15:40:32.238Z,34.40
2022-08-11T15:44:04.466Z,34.00
2022-08-11T15:47:01.561Z,34.60
2022-08-11T15:50:11.361Z,35.40
2022-08-11T15:52:41.043Z,33.80
2022-08-11T15:55:34.633Z,35.30
2022-08-11T15:58:28.755Z,36.20
2022-08-11T16:01:41.837Z,35.20
2022-08-11T16:04:37.021Z,35.50
2022-08-11T16:07:12.981Z,35.70
2022-08-11T16:09:54.129Z,35.80
2022-08-11T16:12:40.648Z,36.00
2022-08-11T16:15:35.117Z,35.90
2022-08-11T16:18:43.718Z,35.90
2022-08-11T16:21:35.278Z,35.20
2022-08-11T16:27:03.921Z,36.80
2022-08-11T16:27:14.191Z,35.80
2022-08-11T16:29:50.701Z,36.60
2022-08-11T16:32:25.744Z,36.30
2022-08-11T16:35:28.132Z,36.60
2022-08-11T16:38:35.766Z,36.30
2022-08-11T16:41:15.925Z,36.70
2022-08-11T16:44:32.850Z,36.80
2022-08-11T16:48:33.200Z,36.90
2022-08-11T16:50:22.458Z,37.60
2022-08-11T16:52:54.732Z,36.80
2022-08-11T16:55:51.585Z,37.20
2022-08-11T16:58:43.427Z,36.90
2022-08-11T17:01:36.956Z,37.00
2022-08-11T17:04:37.858Z,37.50
2022-08-11T17:07:49.325Z,37.10
2022-08-11T17:11:07.793Z,36.70
2022-08-11T17:14:06.263Z,37.20
2022-08-11T17:16:49.187Z,38.00
2022-08-11T17:20:40.659Z,38.60
2022-08-11T17:22:40.735Z,38.60
2022-08-11T17:25:59.127Z,38.60
2022-08-11T17:28:26.895Z,38.60
2022-08-11T17:31:22.669Z,38.60
2022-08-11T17:34:33.764Z,39.20
2022-08-11T17:37:27.005Z,39.20
2022-08-11T17:40:03.057Z,39.40
2022-08-11T17:42:58.402Z,39.80
2022-08-11T17:46:05.450Z,40.00
2022-08-11T17:48:51.189Z,40.00
2022-08-11T17:51:44.405Z,39.80
2022-08-11T17:54:56.282Z,39.80
2022-08-11T17:58:07.601Z,40.00
2022-08-11T18:01:02.061Z,40.30
2022-08-11T18:03:56.463Z,41.20
2022-08-11T18:06:34.786Z,40.80
2022-08-11T18:09:34.205Z,41.30
2022-08-11T18:12:44.406Z,42.20
2022-08-11T18:15:58.890Z,41.40
2022-08-11T18:19:10.841Z,41.70
2022-08-11T18:22:31.824Z,42.20
2022-08-11T18:25:57.077Z,42.70
2022-08-11T18:29:14.320Z,42.90
2022-08-11T18:32:46.133Z,43.20
2022-08-11T18:35:57.469Z,43.90
2022-08-11T18:39:10.487Z,43.50
2022-08-11T18:42:29.729Z,43.40
2022-08-11T18:45:46.109Z,43.60
2022-08-11T18:49:00.763Z,43.40
2022-08-11T18:52:13.556Z,43.90
2022-08-11T18:55:29.514Z,44.00
2022-08-11T18:58:48.322Z,44.40
2022-08-11T19:01:59.785Z,44.40
2022-08-11T19:05:11.037Z,44.40
2022-08-11T19:08:22.636Z,44.80
2022-08-11T19:11:34.451Z,45.10
2022-08-11T19:14:55.605Z,45.00
2022-08-11T19:18:07.402Z,45.00
2022-08-11T19:21:18.756Z,45.20
2022-08-11T19:24:29.598Z,45.10
2022-08-11T19:27:41.972Z,45.40
2022-08-11T19:30:53.666Z,45.50
2022-08-11T19:34:10.654Z,45.90
2022-08-11T19:37:25.415Z,46.20
2022-08-11T19:40:36.545Z,46.30
2022-08-11T19:43:49.939Z,46.50
2022-08-11T19:47:06.805Z,46.30
2022-08-11T19:50:24.156Z,47.20
2022-08-11T19:53:36.336Z,47.40
2022-08-11T19:56:47.825Z,48.20
2022-08-11T20:00:03.416Z,47.40
2022-08-11T20:03:13.740Z,47.60
2022-08-11T20:06:27.596Z,48.30
2022-08-11T20:10:05.199Z,48.70
2022-08-11T20:13:10.271Z,48.30
2022-08-11T20:16:22.228Z,49.30
2022-08-11T20:19:55.586Z,50.00
2022-08-11T20:23:06.729Z,49.40
2022-08-11T20:26:34.832Z,50.00
2022-08-11T20:29:48.659Z,49.60
2022-08-11T20:33:01.143Z,49.40
2022-08-11T20:36:12.474Z,49.70
2022-08-11T20:39:23.848Z,49.80
2022-08-11T20:42:36.724Z,49.60
2022-08-11T20:45:52.101Z,50.30
2022-08-11T20:49:08.236Z,51.40
2022-08-11T20:52:18.878Z,51.70
2022-08-11T20:55:51.205Z,51.30
2022-08-11T20:59:17.620Z,51.30
2022-08-11T21:02:34.356Z,50.80
2022-08-11T21:06:10.383Z,50.70
2022-08-11T21:09:20.586Z,51.20
2022-08-11T21:12:35.147Z,52.10
2022-08-11T21:16:02.896Z,51.50
2022-08-11T21:19:54.494Z,52.00
2022-08-11T21:23:05.873Z,51.90
2022-08-11T21:26:25.733Z,51.70
2022-08-11T21:29:37.900Z,52.70
2022-08-11T21:32:50.136Z,52.10
2022-08-11T21:36:00.837Z,52.10
2022-08-11T21:39:11.519Z,51.80
2022-08-11T21:42:23.774Z,51.90
2022-08-11T21:45:36.711Z,51.90
2022-08-11T21:48:47.982Z,51.40
2022-08-11T21:51:58.200Z,51.80
2022-08-11T21:55:09.345Z,51.40
2022-08-11T21:58:21.007Z,51.40
2022-08-11T22:01:34.455Z,52.50
2022-08-11T22:04:45.982Z,53.20
2022-08-11T22:07:57.973Z,53.50
2022-08-11T22:11:08.935Z,54.10
2022-08-11T22:14:23.215Z,53.40
2022-08-11T22:17:33.520Z,53.30
2022-08-11T22:20:46.454Z,53.70
2022-08-11T22:23:59.186Z,53.80
2022-08-11T22:27:09.445Z,54.00
2022-08-11T22:30:19.859Z,54.80
2022-08-11T22:33:31.133Z,54.30
2022-08-11T22:36:42.050Z,53.60
2022-08-11T22:39:59.602Z,53.70
2022-08-11T22:43:12.678Z,54.40
2022-08-11T22:46:23.438Z,54.80
2022-08-11T22:49:56.117Z,55.20
2022-08-11T22:53:09.880Z,55.20
2022-08-11T22:56:19.873Z,55.20
2022-08-11T22:59:44.648Z,55.70
2022-08-11T23:02:56.201Z,55.60
2022-08-11T23:06:06.756Z,56.90
2022-08-11T23:09:18.623Z,56.00
2022-08-11T23:12:29.544Z,55.80
2022-08-11T23:15:40.828Z,57.20
2022-08-11T23:18:53.197Z,56.20
2022-08-11T23:22:05.685Z,56.30
2022-08-11T23:25:17.748Z,58.00
2022-08-11T23:28:31.988Z,57.00
2022-08-11T23:31:51.180Z,56.20
2022-08-11T23:35:39.884Z,57.00
2022-08-11T23:38:35.766Z,57.20
2022-08-11T23:41:46.630Z,57.10
2022-08-11T23:44:56.701Z,58.20
2022-08-11T23:48:09.610Z,56.70
2022-08-11T23:51:21.103Z,57.10
2022-08-11T23:54:37.188Z,58.40
2022-08-11T23:57:48.992Z,57.70
